Sultan Abdulhamid Hospital Helipad

TR-0053 · 伊斯坦布尔, 土耳其

罗盘
风向 的 风向 270° 直升机
风: 12 kt, 4 beaufort
0 ft 2.000 4.000 6.000 8.000 10.000
Cloud Cloud Cloud Cloud
SCT 2.700
Cloud Cloud Cloud Cloud Cloud Cloud
BKN 10.000
METAR LTBA 240750Z 27012KT 9999 SCT027 BKN100 17/15 Q1014 RMK RWY23 34009KT 300V020

METAR Sultan Abdulhamid Hospital Helipad - TR-0053

Sultan Abdulhamid Hospital Helipad是,土耳其中的直升机场。 该机场位于纬度41,00042和经度29,02056。 这个机场没有ICAO代码,我们使用TR-0053作为参考。 机场在Istanbul FIR中。

该航空气象观测是针对阿塔蒂尔克国际机场在2024年5月24日 10:50, 当地时间进行的。

机场观察

风向为270°,速度为12 kt。

可见度为10 km 或者更多。

有疏云,零星散落的云朵在2.700 ft的高度 和 碎云在10.000 ft的高度。 破损或更高的上限为10.000 ft。

温度和风寒是17 °C。 露点为15 °C,相对湿度为88%。 海平面上的气压为1014 hPa (QNH)。

白天

今天,太阳从05:38升起,在20:23降落。 这适用于Sultan Abdulhamid Hospital Helipad,世界夏令时可能有所不同。 当地时间与世界标准时间之间的时差为+3 小时。 夏令时目前正在进行中。

公司介绍

我们没有关于这个机场的公司信息。

体会

到Vliegles.nl去找飞行课程,跳伞和其他飞行体验。 浏览页面,了解Sultan Abdulhamid Hospital Helipad附近所有可用的活动。 你也可以使用搜索功能来寻找你所在地附近的特定飞行课程、跳伞或其他飞行体验。

乌云

2.700 ft SCT 疏云,零星散落的云朵
10.000 ft BKN 碎云

温度 & 天气

温度 17 °C
露点 15 °C
相对湿度 88%
Kp-index 2 (0-9)

评论

RWY23 34009KT 300V020

白天

日出
05:39
中午
13:01
日落
20:24 (8:59)

小工具

你想在你的网站上有一个关于Sultan Abdulhamid Hospital Helipad的当前航空天气(METAR)的小部件吗?

显示HTML代码
报告变更